sensor_id;sensor_type;location;lat;lon;timestamp;P1;durP1;ratioP1;P2;durP2;ratioP2
62616;SDS011;48692;51.190;6.808;2022-07-23T00:00:09;11.65;;;8.10;;
62616;SDS011;48692;51.190;6.808;2022-07-23T00:02:35;14.63;;;8.30;;
62616;SDS011;48692;51.190;6.808;2022-07-23T00:05:00;12.27;;;8.07;;
62616;SDS011;48692;51.190;6.808;2022-07-23T00:07:26;14.45;;;8.52;;
62616;SDS011;48692;51.190;6.808;2022-07-23T00:09:51;13.75;;;8.07;;
62616;SDS011;48692;51.190;6.808;2022-07-23T00:12:17;12.88;;;8.20;;
62616;SDS011;48692;51.190;6.808;2022-07-23T00:14:42;15.70;;;8.65;;
62616;SDS011;48692;51.190;6.808;2022-07-23T00:17:08;13.30;;;8.48;;
62616;SDS011;48692;51.190;6.808;2022-07-23T00:19:33;15.10;;;9.15;;
62616;SDS011;48692;51.190;6.808;2022-07-23T00:21:59;14.23;;;9.43;;
62616;SDS011;48692;51.190;6.808;2022-07-23T00:24:24;14.27;;;8.85;;
62616;SDS011;48692;51.190;6.808;2022-07-23T00:26:50;14.38;;;9.07;;
62616;SDS011;48692;51.190;6.808;2022-07-23T00:29:15;16.10;;;8.65;;
62616;SDS011;48692;51.190;6.808;2022-07-23T00:31:40;20.13;;;9.00;;
62616;SDS011;48692;51.190;6.808;2022-07-23T00:34:06;14.68;;;9.43;;
62616;SDS011;48692;51.190;6.808;2022-07-23T00:36:31;14.75;;;9.18;;
62616;SDS011;48692;51.190;6.808;2022-07-23T00:38:57;13.48;;;9.35;;
62616;SDS011;48692;51.190;6.808;2022-07-23T00:41:23;14.93;;;8.90;;
62616;SDS011;48692;51.190;6.808;2022-07-23T00:43:48;11.82;;;8.55;;
62616;SDS011;48692;51.190;6.808;2022-07-23T00:46:18;12.98;;;8.77;;
62616;SDS011;48692;51.190;6.808;2022-07-23T00:48:45;18.75;;;9.35;;
62616;SDS011;48692;51.190;6.808;2022-07-23T00:51:10;16.55;;;9.40;;
62616;SDS011;48692;51.190;6.808;2022-07-23T00:53:36;14.57;;;8.75;;
62616;SDS011;48692;51.190;6.808;2022-07-23T00:56:01;14.57;;;9.05;;
62616;SDS011;48692;51.190;6.808;2022-07-23T00:58:27;17.33;;;10.00;;
62616;SDS011;48692;51.190;6.808;2022-07-23T01:00:53;13.98;;;9.40;;
62616;SDS011;48692;51.190;6.808;2022-07-23T01:03:18;13.65;;;9.07;;
62616;SDS011;48692;51.190;6.808;2022-07-23T01:05:44;16.58;;;8.80;;
62616;SDS011;48692;51.190;6.808;2022-07-23T01:08:10;14.95;;;9.27;;
62616;SDS011;48692;51.190;6.808;2022-07-23T01:10:37;12.32;;;8.52;;
62616;SDS011;48692;51.190;6.808;2022-07-23T01:13:04;12.85;;;9.63;;
62616;SDS011;48692;51.190;6.808;2022-07-23T01:15:32;14.20;;;9.18;;
62616;SDS011;48692;51.190;6.808;2022-07-23T01:17:59;14.05;;;9.85;;
62616;SDS011;48692;51.190;6.808;2022-07-23T01:20:25;13.18;;;8.80;;
62616;SDS011;48692;51.190;6.808;2022-07-23T01:22:52;14.80;;;9.35;;
62616;SDS011;48692;51.190;6.808;2022-07-23T01:25:18;12.68;;;9.55;;
62616;SDS011;48692;51.190;6.808;2022-07-23T01:27:45;14.55;;;9.63;;
62616;SDS011;48692;51.190;6.808;2022-07-23T01:30:11;17.77;;;9.23;;
62616;SDS011;48692;51.190;6.808;2022-07-23T01:32:37;17.08;;;9.40;;
62616;SDS011;48692;51.190;6.808;2022-07-23T01:35:03;14.18;;;9.60;;
62616;SDS011;48692;51.190;6.808;2022-07-23T01:37:30;15.52;;;9.32;;
62616;SDS011;48692;51.190;6.808;2022-07-23T01:39:55;14.50;;;9.48;;
62616;SDS011;48692;51.190;6.808;2022-07-23T01:42:21;15.10;;;9.65;;
62616;SDS011;48692;51.190;6.808;2022-07-23T01:44:46;12.60;;;8.85;;
62616;SDS011;48692;51.190;6.808;2022-07-23T01:47:12;15.55;;;9.60;;
62616;SDS011;48692;51.190;6.808;2022-07-23T01:49:37;10.93;;;8.77;;
62616;SDS011;48692;51.190;6.808;2022-07-23T01:52:02;13.23;;;8.25;;
62616;SDS011;48692;51.190;6.808;2022-07-23T01:54:32;13.50;;;9.00;;
62616;SDS011;48692;51.190;6.808;2022-07-23T01:56:59;19.30;;;9.57;;
62616;SDS011;48692;51.190;6.808;2022-07-23T01:59:25;13.60;;;8.85;;
62616;SDS011;48692;51.190;6.808;2022-07-23T02:01:52;14.10;;;9.07;;
62616;SDS011;48692;51.190;6.808;2022-07-23T02:04:19;13.95;;;9.13;;
62616;SDS011;48692;51.190;6.808;2022-07-23T02:06:47;12.07;;;8.73;;
62616;SDS011;48692;51.190;6.808;2022-07-23T02:09:13;12.30;;;9.50;;
62616;SDS011;48692;51.190;6.808;2022-07-23T02:11:39;11.65;;;8.50;;
62616;SDS011;48692;51.190;6.808;2022-07-23T02:14:04;14.52;;;8.85;;
62616;SDS011;48692;51.190;6.808;2022-07-23T02:16:30;10.43;;;8.48;;
62616;SDS011;48692;51.190;6.808;2022-07-23T02:18:55;11.48;;;8.80;;
62616;SDS011;48692;51.190;6.808;2022-07-23T02:21:21;12.40;;;8.20;;
62616;SDS011;48692;51.190;6.808;2022-07-23T02:23:47;11.90;;;8.32;;
62616;SDS011;48692;51.190;6.808;2022-07-23T02:26:12;11.60;;;8.07;;
62616;SDS011;48692;51.190;6.808;2022-07-23T02:28:38;12.10;;;8.10;;
62616;SDS011;48692;51.190;6.808;2022-07-23T02:31:03;11.95;;;8.13;;
62616;SDS011;48692;51.190;6.808;2022-07-23T02:33:29;10.80;;;8.25;;
62616;SDS011;48692;51.190;6.808;2022-07-23T02:35:54;12.18;;;8.38;;
62616;SDS011;48692;51.190;6.808;2022-07-23T02:38:20;11.55;;;7.78;;
62616;SDS011;48692;51.190;6.808;2022-07-23T02:40:46;9.98;;;7.47;;
62616;SDS011;48692;51.190;6.808;2022-07-23T02:43:11;17.60;;;8.25;;
62616;SDS011;48692;51.190;6.808;2022-07-23T02:45:36;12.73;;;7.75;;
62616;SDS011;48692;51.190;6.808;2022-07-23T02:48:02;9.45;;;7.88;;
62616;SDS011;48692;51.190;6.808;2022-07-23T02:50:28;14.40;;;8.93;;
62616;SDS011;48692;51.190;6.808;2022-07-23T02:52:53;13.75;;;8.70;;
62616;SDS011;48692;51.190;6.808;2022-07-23T02:55:19;13.88;;;8.57;;
62616;SDS011;48692;51.190;6.808;2022-07-23T02:57:44;12.57;;;8.10;;
62616;SDS011;48692;51.190;6.808;2022-07-23T03:00:09;11.13;;;7.53;;
62616;SDS011;48692;51.190;6.808;2022-07-23T03:02:35;11.45;;;7.38;;
62616;SDS011;48692;51.190;6.808;2022-07-23T03:05:01;10.57;;;7.80;;
62616;SDS011;48692;51.190;6.808;2022-07-23T03:07:27;13.40;;;7.40;;
62616;SDS011;48692;51.190;6.808;2022-07-23T03:09:52;10.80;;;8.13;;
62616;SDS011;48692;51.190;6.808;2022-07-23T03:12:17;9.18;;;8.02;;
62616;SDS011;48692;51.190;6.808;2022-07-23T03:14:43;11.05;;;8.23;;
62616;SDS011;48692;51.190;6.808;2022-07-23T03:17:08;10.52;;;8.35;;
62616;SDS011;48692;51.190;6.808;2022-07-23T03:19:34;11.27;;;8.60;;
62616;SDS011;48692;51.190;6.808;2022-07-23T03:22:01;10.07;;;7.25;;
62616;SDS011;48692;51.190;6.808;2022-07-23T03:24:27;10.88;;;7.15;;
62616;SDS011;48692;51.190;6.808;2022-07-23T03:27:12;11.43;;;7.10;;
62616;SDS011;48692;51.190;6.808;2022-07-23T03:29:38;14.43;;;7.05;;
62616;SDS011;48692;51.190;6.808;2022-07-23T03:32:03;8.57;;;7.13;;
62616;SDS011;48692;51.190;6.808;2022-07-23T03:34:29;12.48;;;8.00;;
62616;SDS011;48692;51.190;6.808;2022-07-23T03:36:55;9.35;;;7.68;;
62616;SDS011;48692;51.190;6.808;2022-07-23T03:39:20;8.85;;;7.57;;
62616;SDS011;48692;51.190;6.808;2022-07-23T03:41:45;9.20;;;7.00;;
62616;SDS011;48692;51.190;6.808;2022-07-23T03:44:11;10.18;;;7.32;;
62616;SDS011;48692;51.190;6.808;2022-07-23T03:46:36;22.30;;;9.02;;
62616;SDS011;48692;51.190;6.808;2022-07-23T03:49:02;13.75;;;7.90;;
62616;SDS011;48692;51.190;6.808;2022-07-23T03:51:27;9.55;;;7.55;;
62616;SDS011;48692;51.190;6.808;2022-07-23T03:53:52;11.43;;;8.32;;
62616;SDS011;48692;51.190;6.808;2022-07-23T03:56:19;10.43;;;7.50;;
62616;SDS011;48692;51.190;6.808;2022-07-23T03:58:45;10.38;;;7.13;;
62616;SDS011;48692;51.190;6.808;2022-07-23T04:01:10;9.25;;;7.05;;
62616;SDS011;48692;51.190;6.808;2022-07-23T04:03:36;12.02;;;8.07;;
62616;SDS011;48692;51.190;6.808;2022-07-23T04:06:02;11.55;;;8.43;;
62616;SDS011;48692;51.190;6.808;2022-07-23T04:08:28;13.20;;;8.65;;
62616;SDS011;48692;51.190;6.808;2022-07-23T04:10:53;13.55;;;7.97;;
62616;SDS011;48692;51.190;6.808;2022-07-23T04:13:18;15.10;;;8.90;;
62616;SDS011;48692;51.190;6.808;2022-07-23T04:15:44;10.20;;;7.57;;
62616;SDS011;48692;51.190;6.808;2022-07-23T04:18:09;9.57;;;7.22;;
62616;SDS011;48692;51.190;6.808;2022-07-23T04:20:35;12.35;;;7.18;;
62616;SDS011;48692;51.190;6.808;2022-07-23T04:23:00;11.60;;;7.80;;
62616;SDS011;48692;51.190;6.808;2022-07-23T04:25:26;19.42;;;8.32;;
62616;SDS011;48692;51.190;6.808;2022-07-23T04:27:51;13.65;;;8.57;;
62616;SDS011;48692;51.190;6.808;2022-07-23T04:30:16;11.75;;;8.30;;
62616;SDS011;48692;51.190;6.808;2022-07-23T04:32:42;15.68;;;9.27;;
62616;SDS011;48692;51.190;6.808;2022-07-23T04:35:07;15.80;;;9.55;;
62616;SDS011;48692;51.190;6.808;2022-07-23T04:37:33;15.68;;;10.13;;
62616;SDS011;48692;51.190;6.808;2022-07-23T04:39:58;16.80;;;10.10;;
62616;SDS011;48692;51.190;6.808;2022-07-23T04:42:24;19.38;;;10.77;;
62616;SDS011;48692;51.190;6.808;2022-07-23T04:44:49;14.38;;;9.93;;
62616;SDS011;48692;51.190;6.808;2022-07-23T04:47:15;14.95;;;10.07;;
62616;SDS011;48692;51.190;6.808;2022-07-23T04:49:40;13.80;;;9.77;;
62616;SDS011;48692;51.190;6.808;2022-07-23T04:52:05;18.65;;;10.60;;
62616;SDS011;48692;51.190;6.808;2022-07-23T04:54:31;15.23;;;10.50;;
62616;SDS011;48692;51.190;6.808;2022-07-23T04:56:56;18.58;;;9.93;;
62616;SDS011;48692;51.190;6.808;2022-07-23T04:59:22;18.02;;;9.32;;
62616;SDS011;48692;51.190;6.808;2022-07-23T05:01:47;12.43;;;9.40;;
62616;SDS011;48692;51.190;6.808;2022-07-23T05:04:13;13.88;;;10.23;;
62616;SDS011;48692;51.190;6.808;2022-07-23T05:06:38;13.10;;;9.48;;
62616;SDS011;48692;51.190;6.808;2022-07-23T05:09:03;16.30;;;9.60;;
62616;SDS011;48692;51.190;6.808;2022-07-23T05:11:29;12.27;;;8.45;;
62616;SDS011;48692;51.190;6.808;2022-07-23T05:13:54;13.65;;;9.43;;
62616;SDS011;48692;51.190;6.808;2022-07-23T05:16:20;13.25;;;9.05;;
62616;SDS011;48692;51.190;6.808;2022-07-23T05:18:45;20.15;;;9.02;;
62616;SDS011;48692;51.190;6.808;2022-07-23T05:21:11;13.05;;;8.82;;
62616;SDS011;48692;51.190;6.808;2022-07-23T05:23:36;13.38;;;9.27;;
62616;SDS011;48692;51.190;6.808;2022-07-23T05:26:01;12.90;;;9.25;;
62616;SDS011;48692;51.190;6.808;2022-07-23T05:28:27;15.57;;;8.80;;
62616;SDS011;48692;51.190;6.808;2022-07-23T05:30:52;13.65;;;9.48;;
62616;SDS011;48692;51.190;6.808;2022-07-23T05:33:18;13.65;;;8.85;;
62616;SDS011;48692;51.190;6.808;2022-07-23T05:35:44;16.30;;;9.55;;
62616;SDS011;48692;51.190;6.808;2022-07-23T05:38:10;13.20;;;8.95;;
62616;SDS011;48692;51.190;6.808;2022-07-23T05:40:35;13.98;;;9.38;;
62616;SDS011;48692;51.190;6.808;2022-07-23T05:43:00;14.60;;;9.27;;
62616;SDS011;48692;51.190;6.808;2022-07-23T05:45:26;15.82;;;9.75;;
62616;SDS011;48692;51.190;6.808;2022-07-23T05:47:51;13.23;;;8.50;;
62616;SDS011;48692;51.190;6.808;2022-07-23T05:50:17;12.65;;;9.05;;
62616;SDS011;48692;51.190;6.808;2022-07-23T05:52:42;15.05;;;9.13;;
62616;SDS011;48692;51.190;6.808;2022-07-23T05:55:09;13.50;;;9.45;;
62616;SDS011;48692;51.190;6.808;2022-07-23T05:57:35;15.40;;;9.85;;
62616;SDS011;48692;51.190;6.808;2022-07-23T06:00:03;11.75;;;8.48;;
62616;SDS011;48692;51.190;6.808;2022-07-23T06:02:31;14.30;;;9.48;;
62616;SDS011;48692;51.190;6.808;2022-07-23T06:04:56;16.83;;;9.60;;
62616;SDS011;48692;51.190;6.808;2022-07-23T06:07:21;15.38;;;9.30;;
62616;SDS011;48692;51.190;6.808;2022-07-23T06:09:47;16.08;;;9.00;;
62616;SDS011;48692;51.190;6.808;2022-07-23T06:12:14;15.75;;;9.75;;
62616;SDS011;48692;51.190;6.808;2022-07-23T06:14:40;19.65;;;9.05;;
62616;SDS011;48692;51.190;6.808;2022-07-23T06:17:06;20.58;;;9.80;;
62616;SDS011;48692;51.190;6.808;2022-07-23T06:19:32;11.50;;;7.78;;
62616;SDS011;48692;51.190;6.808;2022-07-23T06:21:57;15.52;;;9.35;;
62616;SDS011;48692;51.190;6.808;2022-07-23T06:24:22;15.73;;;9.05;;
62616;SDS011;48692;51.190;6.808;2022-07-23T06:26:48;12.10;;;9.10;;
62616;SDS011;48692;51.190;6.808;2022-07-23T06:29:13;13.50;;;9.30;;
62616;SDS011;48692;51.190;6.808;2022-07-23T06:31:39;16.23;;;9.90;;
62616;SDS011;48692;51.190;6.808;2022-07-23T06:34:04;15.88;;;10.07;;
62616;SDS011;48692;51.190;6.808;2022-07-23T06:36:30;14.07;;;8.95;;
62616;SDS011;48692;51.190;6.808;2022-07-23T06:38:55;13.02;;;9.63;;
62616;SDS011;48692;51.190;6.808;2022-07-23T06:41:21;19.63;;;10.50;;
62616;SDS011;48692;51.190;6.808;2022-07-23T06:43:47;15.25;;;9.15;;
62616;SDS011;48692;51.190;6.808;2022-07-23T06:46:13;18.88;;;9.63;;
62616;SDS011;48692;51.190;6.808;2022-07-23T06:48:39;13.63;;;9.65;;
62616;SDS011;48692;51.190;6.808;2022-07-23T06:51:04;15.38;;;9.10;;
62616;SDS011;48692;51.190;6.808;2022-07-23T06:53:30;14.93;;;9.32;;
62616;SDS011;48692;51.190;6.808;2022-07-23T06:55:55;15.75;;;9.98;;
62616;SDS011;48692;51.190;6.808;2022-07-23T06:58:21;16.30;;;10.10;;
62616;SDS011;48692;51.190;6.808;2022-07-23T07:00:46;19.45;;;11.27;;
62616;SDS011;48692;51.190;6.808;2022-07-23T07:03:11;15.52;;;9.80;;
62616;SDS011;48692;51.190;6.808;2022-07-23T07:05:37;17.40;;;11.30;;
62616;SDS011;48692;51.190;6.808;2022-07-23T07:08:04;24.63;;;14.57;;
62616;SDS011;48692;51.190;6.808;2022-07-23T07:10:30;5.03;;;3.58;;
62616;SDS011;48692;51.190;6.808;2022-07-23T07:12:56;10.40;;;6.03;;
62616;SDS011;48692;51.190;6.808;2022-07-23T07:15:21;22.23;;;12.43;;
62616;SDS011;48692;51.190;6.808;2022-07-23T07:17:47;21.35;;;11.88;;
62616;SDS011;48692;51.190;6.808;2022-07-23T07:20:12;18.98;;;10.23;;
62616;SDS011;48692;51.190;6.808;2022-07-23T07:22:38;29.15;;;15.13;;
62616;SDS011;48692;51.190;6.808;2022-07-23T07:25:04;26.70;;;14.82;;
62616;SDS011;48692;51.190;6.808;2022-07-23T07:27:31;20.25;;;11.30;;
62616;SDS011;48692;51.190;6.808;2022-07-23T07:29:56;21.42;;;12.30;;
62616;SDS011;48692;51.190;6.808;2022-07-23T07:32:21;18.00;;;11.13;;
62616;SDS011;48692;51.190;6.808;2022-07-23T07:34:47;18.95;;;11.25;;
62616;SDS011;48692;51.190;6.808;2022-07-23T07:37:12;18.17;;;10.50;;
62616;SDS011;48692;51.190;6.808;2022-07-23T07:39:38;21.35;;;11.93;;
62616;SDS011;48692;51.190;6.808;2022-07-23T07:42:04;21.73;;;11.68;;
62616;SDS011;48692;51.190;6.808;2022-07-23T07:44:29;21.50;;;11.77;;
62616;SDS011;48692;51.190;6.808;2022-07-23T07:46:55;21.38;;;11.07;;
62616;SDS011;48692;51.190;6.808;2022-07-23T07:49:20;19.45;;;11.40;;
62616;SDS011;48692;51.190;6.808;2022-07-23T07:51:46;19.90;;;10.50;;
62616;SDS011;48692;51.190;6.808;2022-07-23T07:54:12;14.13;;;9.88;;
62616;SDS011;48692;51.190;6.808;2022-07-23T07:56:38;15.52;;;9.18;;
62616;SDS011;48692;51.190;6.808;2022-07-23T07:59:03;16.70;;;9.02;;
62616;SDS011;48692;51.190;6.808;2022-07-23T08:01:29;14.38;;;9.23;;
62616;SDS011;48692;51.190;6.808;2022-07-23T08:03:55;12.90;;;8.45;;
62616;SDS011;48692;51.190;6.808;2022-07-23T08:06:20;17.48;;;8.98;;
62616;SDS011;48692;51.190;6.808;2022-07-23T08:08:46;15.57;;;8.73;;
62616;SDS011;48692;51.190;6.808;2022-07-23T08:11:12;13.70;;;9.07;;
62616;SDS011;48692;51.190;6.808;2022-07-23T08:13:37;14.43;;;7.25;;
62616;SDS011;48692;51.190;6.808;2022-07-23T08:16:03;11.25;;;7.78;;
62616;SDS011;48692;51.190;6.808;2022-07-23T08:18:29;15.88;;;8.88;;
62616;SDS011;48692;51.190;6.808;2022-07-23T08:20:54;12.20;;;6.93;;
62616;SDS011;48692;51.190;6.808;2022-07-23T08:23:20;13.02;;;6.95;;
62616;SDS011;48692;51.190;6.808;2022-07-23T08:25:45;16.70;;;10.35;;
62616;SDS011;48692;51.190;6.808;2022-07-23T08:28:12;17.90;;;11.98;;
62616;SDS011;48692;51.190;6.808;2022-07-23T08:30:39;20.75;;;11.63;;
62616;SDS011;48692;51.190;6.808;2022-07-23T08:33:08;19.95;;;14.25;;
62616;SDS011;48692;51.190;6.808;2022-07-23T08:35:38;19.35;;;14.15;;
62616;SDS011;48692;51.190;6.808;2022-07-23T08:38:07;27.00;;;13.70;;
62616;SDS011;48692;51.190;6.808;2022-07-23T08:40:37;19.58;;;12.93;;
62616;SDS011;48692;51.190;6.808;2022-07-23T08:43:11;19.63;;;13.68;;
62616;SDS011;48692;51.190;6.808;2022-07-23T08:45:44;21.02;;;11.98;;
62616;SDS011;48692;51.190;6.808;2022-07-23T08:48:13;28.38;;;15.20;;
62616;SDS011;48692;51.190;6.808;2022-07-23T08:50:48;21.83;;;14.60;;
62616;SDS011;48692;51.190;6.808;2022-07-23T08:53:17;19.15;;;14.48;;
62616;SDS011;48692;51.190;6.808;2022-07-23T08:55:45;17.00;;;12.52;;
62616;SDS011;48692;51.190;6.808;2022-07-23T08:58:16;32.85;;;14.07;;
62616;SDS011;48692;51.190;6.808;2022-07-23T09:00:42;24.17;;;14.32;;
62616;SDS011;48692;51.190;6.808;2022-07-23T09:03:19;24.90;;;12.95;;
62616;SDS011;48692;51.190;6.808;2022-07-23T09:05:51;21.38;;;12.85;;
62616;SDS011;48692;51.190;6.808;2022-07-23T09:08:18;19.42;;;12.25;;
62616;SDS011;48692;51.190;6.808;2022-07-23T09:13:38;16.48;;;11.40;;
62616;SDS011;48692;51.190;6.808;2022-07-23T09:16:09;18.65;;;11.18;;
62616;SDS011;48692;51.190;6.808;2022-07-23T09:18:40;15.73;;;10.07;;
62616;SDS011;48692;51.190;6.808;2022-07-23T09:21:11;17.13;;;10.13;;
62616;SDS011;48692;51.190;6.808;2022-07-23T09:23:59;23.65;;;9.38;;
62616;SDS011;48692;51.190;6.808;2022-07-23T09:26:36;18.52;;;8.75;;
62616;SDS011;48692;51.190;6.808;2022-07-23T09:34:21;10.60;;;6.63;;
62616;SDS011;48692;51.190;6.808;2022-07-23T09:36:54;18.73;;;7.07;;
62616;SDS011;48692;51.190;6.808;2022-07-23T09:39:26;14.77;;;7.43;;
62616;SDS011;48692;51.190;6.808;2022-07-23T09:41:57;15.35;;;6.57;;
62616;SDS011;48692;51.190;6.808;2022-07-23T09:44:40;13.70;;;5.78;;
62616;SDS011;48692;51.190;6.808;2022-07-23T09:47:07;11.00;;;6.70;;
62616;SDS011;48692;51.190;6.808;2022-07-23T09:49:33;12.02;;;5.40;;
62616;SDS011;48692;51.190;6.808;2022-07-23T09:51:59;15.38;;;5.80;;
62616;SDS011;48692;51.190;6.808;2022-07-23T09:57:09;13.25;;;5.65;;
62616;SDS011;48692;51.190;6.808;2022-07-23T09:59:40;8.77;;;4.65;;
62616;SDS011;48692;51.190;6.808;2022-07-23T10:02:09;7.78;;;4.63;;
62616;SDS011;48692;51.190;6.808;2022-07-23T10:04:37;10.07;;;4.65;;
62616;SDS011;48692;51.190;6.808;2022-07-23T10:07:04;8.25;;;4.53;;
62616;SDS011;48692;51.190;6.808;2022-07-23T10:09:36;11.02;;;4.45;;
62616;SDS011;48692;51.190;6.808;2022-07-23T10:12:12;12.45;;;4.25;;
62616;SDS011;48692;51.190;6.808;2022-07-23T10:15:11;8.82;;;3.80;;
62616;SDS011;48692;51.190;6.808;2022-07-23T10:17:37;7.57;;;3.35;;
62616;SDS011;48692;51.190;6.808;2022-07-23T10:20:03;5.82;;;3.35;;
62616;SDS011;48692;51.190;6.808;2022-07-23T10:22:33;7.60;;;3.33;;
62616;SDS011;48692;51.190;6.808;2022-07-23T10:25:08;6.65;;;3.40;;
62616;SDS011;48692;51.190;6.808;2022-07-23T10:36:12;11.02;;;3.53;;
62616;SDS011;48692;51.190;6.808;2022-07-23T10:41:39;5.35;;;3.00;;
62616;SDS011;48692;51.190;6.808;2022-07-23T10:44:07;6.63;;;2.83;;
62616;SDS011;48692;51.190;6.808;2022-07-23T10:49:31;5.20;;;3.20;;
62616;SDS011;48692;51.190;6.808;2022-07-23T10:57:14;9.85;;;2.90;;
62616;SDS011;48692;51.190;6.808;2022-07-23T11:02:35;6.10;;;2.88;;
62616;SDS011;48692;51.190;6.808;2022-07-23T11:05:06;5.40;;;2.67;;
62616;SDS011;48692;51.190;6.808;2022-07-23T11:10:38;7.30;;;2.75;;
62616;SDS011;48692;51.190;6.808;2022-07-23T11:24:51;6.25;;;3.40;;
62616;SDS011;48692;51.190;6.808;2022-07-23T11:27:16;8.35;;;3.35;;
62616;SDS011;48692;51.190;6.808;2022-07-23T11:35:33;5.63;;;2.95;;
62616;SDS011;48692;51.190;6.808;2022-07-23T11:38:08;8.43;;;2.70;;
62616;SDS011;48692;51.190;6.808;2022-07-23T11:40:40;9.85;;;2.97;;
62616;SDS011;48692;51.190;6.808;2022-07-23T11:43:09;6.93;;;3.10;;
62616;SDS011;48692;51.190;6.808;2022-07-23T11:45:40;9.50;;;3.17;;
62616;SDS011;48692;51.190;6.808;2022-07-23T11:48:27;12.75;;;3.58;;
62616;SDS011;48692;51.190;6.808;2022-07-23T11:50:55;8.98;;;2.75;;
62616;SDS011;48692;51.190;6.808;2022-07-23T11:53:23;5.97;;;2.75;;
62616;SDS011;48692;51.190;6.808;2022-07-23T11:56:06;10.65;;;2.83;;
62616;SDS011;48692;51.190;6.808;2022-07-23T11:58:35;8.48;;;3.20;;
62616;SDS011;48692;51.190;6.808;2022-07-23T12:01:02;5.47;;;3.13;;
62616;SDS011;48692;51.190;6.808;2022-07-23T12:03:28;7.45;;;3.38;;
62616;SDS011;48692;51.190;6.808;2022-07-23T12:05:57;6.07;;;3.08;;
62616;SDS011;48692;51.190;6.808;2022-07-23T12:08:24;9.73;;;3.28;;
62616;SDS011;48692;51.190;6.808;2022-07-23T12:10:50;8.38;;;3.10;;
62616;SDS011;48692;51.190;6.808;2022-07-23T12:13:19;5.70;;;3.15;;
62616;SDS011;48692;51.190;6.808;2022-07-23T12:15:51;7.57;;;3.20;;
